Time;durP1;ratioP1;P1;durP2;ratioP2;P2;SDS_P1;SDS_P2;PMS_P1;PMS_P2;Temp;Humidity;BMP_temperature;BMP_pressure;BME280_temperature;BME280_humidity;BME280_pressure;Samples;Min_cycle;Max_cycle;Signal;HPM_P1;HPM_P2
2023/07/26 00:01:44;;;;;;;14.50;5.83;;;;;;;;;;4997961;28;20494;-70
2023/07/26 00:04:09;;;;;;;13.13;5.85;;;;;;;;;;5006582;28;20072;-72
2023/07/26 00:06:34;;;;;;;13.73;6.40;;;;;;;;;;4993017;28;20457;-70
2023/07/26 00:09:00;;;;;;;13.90;5.73;;;;;;;;;;5009446;28;20272;-71
2023/07/26 00:11:25;;;;;;;13.48;6.03;;;;;;;;;;5010850;28;20030;-69
2023/07/26 00:13:50;;;;;;;10.80;6.00;;;;;;;;;;5010896;28;20034;-71
2023/07/26 00:16:15;;;;;;;14.93;6.27;;;;;;;;;;4972232;28;20046;-68
2023/07/26 00:18:41;;;;;;;12.77;5.90;;;;;;;;;;5006792;28;20036;-71
2023/07/26 00:21:06;;;;;;;13.93;5.73;;;;;;;;;;5010615;28;20147;-70
2023/07/26 00:23:31;;;;;;;12.18;5.63;;;;;;;;;;5010470;28;20859;-67
2023/07/26 00:25:57;;;;;;;13.50;5.63;;;;;;;;;;5010719;28;20045;-73
2023/07/26 00:28:22;;;;;;;12.93;5.47;;;;;;;;;;5010402;28;20729;-71
2023/07/26 00:30:48;;;;;;;14.23;6.43;;;;;;;;;;5010639;28;20273;-68
2023/07/26 00:33:13;;;;;;;11.45;5.60;;;;;;;;;;4981050;28;20046;-72
2023/07/26 00:35:39;;;;;;;10.70;5.63;;;;;;;;;;4990531;28;20102;-71
2023/07/26 00:38:04;;;;;;;13.10;5.68;;;;;;;;;;4992509;28;20141;-71
2023/07/26 00:40:30;;;;;;;15.67;5.77;;;;;;;;;;5010699;28;20172;-70
2023/07/26 00:42:55;;;;;;;12.05;6.18;;;;;;;;;;5009821;28;20069;-67
2023/07/26 00:45:20;;;;;;;13.30;5.23;;;;;;;;;;5004101;28;20057;-66
2023/07/26 00:47:45;;;;;;;14.87;5.97;;;;;;;;;;4994240;28;20285;-67
2023/07/26 00:50:11;;;;;;;12.03;5.67;;;;;;;;;;4990763;28;20112;-71
2023/07/26 00:52:36;;;;;;;13.17;5.80;;;;;;;;;;5010061;28;20038;-72
2023/07/26 00:55:02;;;;;;;12.90;6.17;;;;;;;;;;4990295;28;20316;-73
2023/07/26 00:57:28;;;;;;;11.73;5.50;;;;;;;;;;4992576;28;20073;-69
2023/07/26 00:59:53;;;;;;;13.32;5.97;;;;;;;;;;5007592;28;20070;-74
2023/07/26 01:02:19;;;;;;;13.10;5.90;;;;;;;;;;4996739;28;20088;-73
2023/07/26 01:04:44;;;;;;;12.90;5.83;;;;;;;;;;4992006;28;20034;-68
2023/07/26 01:07:15;;;;;;;12.00;6.10;;;;;;;;;;4999763;28;20320;-67
2023/07/26 01:09:43;;;;;;;14.10;5.97;;;;;;;;;;5010221;28;20324;-65
2023/07/26 01:12:19;;;;;;;12.15;6.05;;;;;;;;;;4988882;28;20489;-68
2023/07/26 01:14:53;;;;;;;17.88;6.38;;;;;;;;;;4987370;28;20053;-71
2023/07/26 01:17:18;;;;;;;14.60;6.70;;;;;;;;;;4968278;28;20046;-70
2023/07/26 01:19:43;;;;;;;14.10;6.00;;;;;;;;;;5002243;28;20026;-68
2023/07/26 01:22:09;;;;;;;16.33;5.73;;;;;;;;;;5009734;28;20053;-71
2023/07/26 01:24:34;;;;;;;11.63;5.87;;;;;;;;;;5028844;28;20266;-68
2023/07/26 01:26:59;;;;;;;10.93;5.47;;;;;;;;;;5011239;28;20521;-70
2023/07/26 01:29:24;;;;;;;10.50;5.77;;;;;;;;;;5020234;28;20260;-67
2023/07/26 01:31:50;;;;;;;14.77;6.40;;;;;;;;;;4993525;28;20026;-71
2023/07/26 01:34:15;;;;;;;12.50;5.83;;;;;;;;;;4988123;28;20360;-68
2023/07/26 01:36:40;;;;;;;13.03;6.03;;;;;;;;;;4991481;28;20069;-69
2023/07/26 01:39:05;;;;;;;11.65;6.32;;;;;;;;;;4986487;28;20029;-67
2023/07/26 01:41:31;;;;;;;12.93;5.80;;;;;;;;;;4990320;28;20108;-71
2023/07/26 01:43:56;;;;;;;11.02;6.20;;;;;;;;;;4991340;28;20265;-72
2023/07/26 01:46:21;;;;;;;10.05;5.60;;;;;;;;;;4977197;28;20026;-70
2023/07/26 01:48:46;;;;;;;14.30;5.97;;;;;;;;;;4979717;28;20014;-67
2023/07/26 01:51:12;;;;;;;14.67;5.90;;;;;;;;;;5008832;28;20037;-72
2023/07/26 01:53:37;;;;;;;13.20;5.40;;;;;;;;;;4991496;28;20343;-72
2023/07/26 01:56:02;;;;;;;15.13;5.97;;;;;;;;;;5009440;28;20786;-70
2023/07/26 01:58:27;;;;;;;12.68;6.00;;;;;;;;;;4989951;28;20276;-71
2023/07/26 02:00:53;;;;;;;13.73;6.18;;;;;;;;;;4986263;28;20388;-72
2023/07/26 02:03:18;;;;;;;12.23;5.63;;;;;;;;;;4979083;28;20435;-71
2023/07/26 02:05:44;;;;;;;12.03;5.33;;;;;;;;;;4975514;28;20022;-71
2023/07/26 02:08:09;;;;;;;13.25;6.28;;;;;;;;;;5010580;28;20740;-70
2023/07/26 02:10:34;;;;;;;15.13;6.32;;;;;;;;;;5007842;28;20478;-71
2023/07/26 02:13:00;;;;;;;12.00;5.53;;;;;;;;;;4989962;28;20388;-71
2023/07/26 02:15:25;;;;;;;12.37;6.13;;;;;;;;;;4985259;28;20453;-68
2023/07/26 02:17:50;;;;;;;13.10;5.73;;;;;;;;;;4989213;28;20405;-68
2023/07/26 02:20:15;;;;;;;12.47;6.23;;;;;;;;;;5006150;28;20076;-72
2023/07/26 02:22:41;;;;;;;15.15;5.90;;;;;;;;;;4997708;28;20028;-72
2023/07/26 02:25:06;;;;;;;14.23;5.50;;;;;;;;;;4989638;28;20041;-73
2023/07/26 02:27:31;;;;;;;14.63;5.50;;;;;;;;;;5008136;28;20265;-68
2023/07/26 02:29:56;;;;;;;16.63;5.80;;;;;;;;;;5005658;28;20422;-73
2023/07/26 02:32:22;;;;;;;13.20;5.63;;;;;;;;;;5007722;28;20026;-71
2023/07/26 02:34:47;;;;;;;13.05;5.60;;;;;;;;;;5007827;28;20052;-66
2023/07/26 02:37:12;;;;;;;16.53;6.67;;;;;;;;;;5003401;28;20034;-71
2023/07/26 02:39:37;;;;;;;15.03;5.30;;;;;;;;;;4998854;28;20021;-71
2023/07/26 02:42:03;;;;;;;18.17;5.23;;;;;;;;;;5007449;28;20258;-72
2023/07/26 02:44:28;;;;;;;15.00;5.63;;;;;;;;;;5007025;28;20285;-70
2023/07/26 02:46:53;;;;;;;14.77;5.57;;;;;;;;;;5007998;28;20062;-75
2023/07/26 02:49:18;;;;;;;14.00;5.47;;;;;;;;;;5008462;28;20120;-70
2023/07/26 02:51:44;;;;;;;14.30;5.40;;;;;;;;;;5007159;28;20689;-68
2023/07/26 02:54:09;;;;;;;9.70;5.37;;;;;;;;;;5007241;28;20616;-67
2023/07/26 02:56:34;;;;;;;12.50;5.57;;;;;;;;;;5006387;28;20324;-72
2023/07/26 02:58:59;;;;;;;11.97;5.67;;;;;;;;;;5006570;28;20060;-71
2023/07/26 03:01:25;;;;;;;14.73;5.67;;;;;;;;;;4994097;28;20069;-72
2023/07/26 03:03:50;;;;;;;12.63;5.82;;;;;;;;;;4989563;28;20268;-68
2023/07/26 03:06:15;;;;;;;11.67;5.93;;;;;;;;;;4988614;28;20018;-67
2023/07/26 03:08:40;;;;;;;13.20;6.10;;;;;;;;;;5006567;28;20067;-71
2023/07/26 03:11:06;;;;;;;14.27;6.20;;;;;;;;;;4988327;28;20769;-72
2023/07/26 03:13:31;;;;;;;10.70;6.10;;;;;;;;;;4989073;28;20486;-71
2023/07/26 03:15:56;;;;;;;13.23;6.47;;;;;;;;;;4997370;28;20702;-71
2023/07/26 03:18:21;;;;;;;11.37;6.27;;;;;;;;;;4986387;28;20470;-71
2023/07/26 03:20:47;;;;;;;11.40;6.23;;;;;;;;;;4998587;28;20515;-72
2023/07/26 03:23:13;;;;;;;14.33;5.77;;;;;;;;;;4988719;28;20434;-71
2023/07/26 03:25:38;;;;;;;11.65;6.18;;;;;;;;;;5001762;28;20289;-73
2023/07/26 03:28:03;;;;;;;15.27;6.23;;;;;;;;;;5004874;28;20033;-73
2023/07/26 03:30:29;;;;;;;11.73;6.35;;;;;;;;;;4981029;28;20273;-73
2023/07/26 03:32:54;;;;;;;14.97;6.20;;;;;;;;;;5006584;28;20025;-69
2023/07/26 03:35:19;;;;;;;12.57;6.07;;;;;;;;;;4982681;28;20281;-66
2023/07/26 03:37:44;;;;;;;12.90;6.67;;;;;;;;;;5001394;28;20070;-69
2023/07/26 03:40:10;;;;;;;14.07;6.50;;;;;;;;;;5003862;28;21689;-70
2023/07/26 03:42:35;;;;;;;15.75;6.95;;;;;;;;;;5006677;28;20046;-67
2023/07/26 03:45:00;;;;;;;11.90;6.20;;;;;;;;;;5007060;28;20046;-71
2023/07/26 03:47:26;;;;;;;11.70;6.30;;;;;;;;;;5001738;28;20399;-67
2023/07/26 03:49:51;;;;;;;15.97;6.10;;;;;;;;;;5001024;28;20465;-66
2023/07/26 03:52:16;;;;;;;13.10;6.10;;;;;;;;;;5002958;28;20042;-69
2023/07/26 03:54:41;;;;;;;12.47;6.53;;;;;;;;;;5000749;28;20038;-67
2023/07/26 03:57:07;;;;;;;12.37;5.90;;;;;;;;;;5001217;28;20058;-70
2023/07/26 03:59:33;;;;;;;13.68;6.68;;;;;;;;;;4999918;28;20275;-65
2023/07/26 04:01:58;;;;;;;13.43;6.53;;;;;;;;;;4996852;28;20123;-65
2023/07/26 04:04:23;;;;;;;12.73;6.17;;;;;;;;;;5002347;28;20307;-69
2023/07/26 04:06:48;;;;;;;16.63;7.27;;;;;;;;;;5000510;28;21327;-69
2023/07/26 04:09:14;;;;;;;16.17;6.90;;;;;;;;;;4982314;28;20435;-66
2023/07/26 04:11:39;;;;;;;14.87;6.40;;;;;;;;;;5003230;28;20056;-66
2023/07/26 04:14:04;;;;;;;16.93;6.57;;;;;;;;;;5000048;28;20277;-66
2023/07/26 04:16:29;;;;;;;18.07;6.70;;;;;;;;;;4984382;28;20295;-67
2023/07/26 04:18:55;;;;;;;14.43;6.40;;;;;;;;;;4987356;28;20312;-67
2023/07/26 04:21:20;;;;;;;15.05;6.30;;;;;;;;;;5000649;28;20173;-65
2023/07/26 04:23:45;;;;;;;17.13;6.70;;;;;;;;;;4989546;28;20040;-66
2023/07/26 04:26:10;;;;;;;11.88;6.55;;;;;;;;;;5002127;28;20046;-69
2023/07/26 04:28:36;;;;;;;15.17;6.80;;;;;;;;;;5004896;28;20148;-69
2023/07/26 04:31:01;;;;;;;16.03;7.20;;;;;;;;;;4999732;28;20046;-68
2023/07/26 04:33:26;;;;;;;14.05;6.50;;;;;;;;;;4994058;28;20438;-67
2023/07/26 04:35:52;;;;;;;15.60;6.97;;;;;;;;;;4983960;28;20038;-67
2023/07/26 04:38:18;;;;;;;12.57;6.80;;;;;;;;;;5004580;28;20414;-67
2023/07/26 04:40:46;;;;;;;11.57;6.35;;;;;;;;;;4994901;28;22331;-68
2023/07/26 04:43:11;;;;;;;11.95;6.50;;;;;;;;;;5005867;28;20084;-69
2023/07/26 04:45:36;;;;;;;12.57;6.47;;;;;;;;;;5005066;28;20025;-66
2023/07/26 04:48:01;;;;;;;16.87;6.83;;;;;;;;;;5005271;28;20042;-68
2023/07/26 04:50:27;;;;;;;13.77;6.60;;;;;;;;;;5004067;28;20175;-68
2023/07/26 04:52:52;;;;;;;16.30;7.10;;;;;;;;;;5005231;28;20149;-68
2023/07/26 04:55:17;;;;;;;10.07;6.40;;;;;;;;;;4988635;28;20269;-69
2023/07/26 04:57:42;;;;;;;12.37;7.13;;;;;;;;;;5003712;28;20819;-67
2023/07/26 05:00:08;;;;;;;13.13;6.73;;;;;;;;;;4985034;28;20034;-66
2023/07/26 05:02:33;;;;;;;14.55;6.47;;;;;;;;;;5003342;28;20487;-68
2023/07/26 05:04:58;;;;;;;13.50;6.87;;;;;;;;;;4986827;28;20040;-67
2023/07/26 05:07:23;;;;;;;11.63;6.53;;;;;;;;;;4987250;28;20987;-67
2023/07/26 05:09:49;;;;;;;16.97;7.17;;;;;;;;;;5002313;28;20507;-68
2023/07/26 05:12:14;;;;;;;13.70;6.73;;;;;;;;;;5002251;28;20042;-67
2023/07/26 05:14:41;;;;;;;15.97;7.43;;;;;;;;;;4999185;28;20057;-65
2023/07/26 05:17:06;;;;;;;16.38;7.55;;;;;;;;;;4998436;28;20324;-69
2023/07/26 05:19:31;;;;;;;17.92;7.50;;;;;;;;;;5002651;28;20066;-66
2023/07/26 05:21:56;;;;;;;11.37;6.47;;;;;;;;;;4999819;28;20469;-67
2023/07/26 05:24:22;;;;;;;13.80;7.20;;;;;;;;;;5003262;28;20558;-68
2023/07/26 05:26:47;;;;;;;15.00;7.00;;;;;;;;;;5000767;28;20517;-67
2023/07/26 05:29:12;;;;;;;19.03;8.30;;;;;;;;;;5002582;28;20500;-67
2023/07/26 05:31:37;;;;;;;16.10;7.23;;;;;;;;;;5002787;28;20034;-67
2023/07/26 05:34:03;;;;;;;12.90;7.20;;;;;;;;;;5006784;28;20034;-65
2023/07/26 05:36:28;;;;;;;14.30;7.07;;;;;;;;;;4983596;28;20038;-67
2023/07/26 05:38:53;;;;;;;16.40;6.63;;;;;;;;;;5000735;28;20042;-68
2023/07/26 05:41:18;;;;;;;23.30;7.37;;;;;;;;;;5003283;28;20176;-68
2023/07/26 05:43:44;;;;;;;16.13;7.47;;;;;;;;;;4976296;28;20069;-65
2023/07/26 05:46:09;;;;;;;14.13;6.67;;;;;;;;;;4989854;28;20564;-69
2023/07/26 05:48:34;;;;;;;15.38;7.10;;;;;;;;;;4997706;28;20395;-67
2023/07/26 05:50:59;;;;;;;15.87;6.87;;;;;;;;;;4998676;28;20136;-67
2023/07/26 05:53:25;;;;;;;15.47;7.03;;;;;;;;;;4979818;28;20844;-67
2023/07/26 05:55:50;;;;;;;14.52;6.32;;;;;;;;;;4994556;28;20331;-66
2023/07/26 05:58:15;;;;;;;12.50;6.68;;;;;;;;;;4993284;28;20192;-67
2023/07/26 06:00:40;;;;;;;14.03;6.23;;;;;;;;;;4978877;28;20557;-67
2023/07/26 06:03:06;;;;;;;14.87;6.13;;;;;;;;;;4998582;28;20166;-68
2023/07/26 06:05:31;;;;;;;15.68;6.57;;;;;;;;;;5003435;28;20608;-68
2023/07/26 06:07:56;;;;;;;17.00;6.70;;;;;;;;;;4996993;28;20039;-68
2023/07/26 06:10:21;;;;;;;11.68;5.55;;;;;;;;;;4998839;28;20109;-68
2023/07/26 06:12:47;;;;;;;14.77;6.83;;;;;;;;;;5000584;28;20033;-69
2023/07/26 06:15:12;;;;;;;15.80;6.23;;;;;;;;;;5000676;28;20124;-67
2023/07/26 06:17:37;;;;;;;17.40;6.03;;;;;;;;;;4982276;28;20058;-68
2023/07/26 06:20:04;;;;;;;13.90;5.97;;;;;;;;;;4995268;28;21954;-68
2023/07/26 06:22:29;;;;;;;13.63;6.00;;;;;;;;;;4994187;28;20137;-67
2023/07/26 06:24:55;;;;;;;14.80;6.70;;;;;;;;;;4975429;28;20634;-69
2023/07/26 06:27:21;;;;;;;15.60;6.07;;;;;;;;;;4997223;28;20392;-67
2023/07/26 06:29:46;;;;;;;14.18;6.45;;;;;;;;;;4996679;28;20410;-68
2023/07/26 06:32:12;;;;;;;14.67;6.10;;;;;;;;;;4999615;28;20034;-68
2023/07/26 06:34:37;;;;;;;17.52;6.13;;;;;;;;;;4997149;28;20527;-70
2023/07/26 06:37:02;;;;;;;12.93;5.70;;;;;;;;;;4998114;28;20054;-67
2023/07/26 06:39:27;;;;;;;14.55;5.60;;;;;;;;;;5001707;28;20030;-67
2023/07/26 06:41:53;;;;;;;16.50;6.40;;;;;;;;;;5000063;28;20038;-66
2023/07/26 06:44:18;;;;;;;19.40;6.43;;;;;;;;;;4993590;28;20152;-65
2023/07/26 06:46:43;;;;;;;14.30;5.93;;;;;;;;;;4978497;28;20107;-64
2023/07/26 06:49:10;;;;;;;16.70;6.67;;;;;;;;;;4994326;28;20093;-66
2023/07/26 06:51:35;;;;;;;16.13;6.53;;;;;;;;;;4992410;28;20038;-65
2023/07/26 06:54:00;;;;;;;14.07;6.38;;;;;;;;;;5006261;28;20463;-63
2023/07/26 06:56:25;;;;;;;15.10;6.03;;;;;;;;;;5006056;28;20085;-63
2023/07/26 06:58:51;;;;;;;20.00;6.10;;;;;;;;;;5006232;28;20045;-65
2023/07/26 07:01:20;;;;;;;17.75;6.38;;;;;;;;;;5007121;28;20038;-65
2023/07/26 07:03:45;;;;;;;13.05;5.95;;;;;;;;;;5002959;28;20041;-64
2023/07/26 07:06:10;;;;;;;10.38;5.70;;;;;;;;;;4988152;28;20458;-64
2023/07/26 07:08:37;;;;;;;11.60;5.70;;;;;;;;;;4992187;28;20036;-64
2023/07/26 07:11:02;;;;;;;16.00;5.78;;;;;;;;;;4987320;28;20037;-62
2023/07/26 07:13:27;;;;;;;14.93;6.13;;;;;;;;;;5004731;28;20033;-66
2023/07/26 07:15:53;;;;;;;16.03;5.23;;;;;;;;;;5006113;28;20121;-65
2023/07/26 07:18:19;;;;;;;10.70;5.07;;;;;;;;;;4988643;28;20129;-66
2023/07/26 07:20:44;;;;;;;9.45;5.47;;;;;;;;;;4987030;28;20068;-62
2023/07/26 07:23:09;;;;;;;11.67;5.57;;;;;;;;;;4999318;28;20034;-63
2023/07/26 07:25:36;;;;;;;10.93;5.43;;;;;;;;;;4997360;28;20287;-63
2023/07/26 07:28:01;;;;;;;9.85;5.95;;;;;;;;;;4996260;28;20039;-64
2023/07/26 07:30:27;;;;;;;10.70;5.20;;;;;;;;;;4986425;28;20061;-64
2023/07/26 07:32:52;;;;;;;10.73;5.50;;;;;;;;;;4990857;28;20286;-65
2023/07/26 07:35:17;;;;;;;10.90;5.23;;;;;;;;;;4998104;28;20100;-64
2023/07/26 07:37:42;;;;;;;10.80;5.25;;;;;;;;;;5005996;28;20786;-62
2023/07/26 07:40:08;;;;;;;9.50;4.97;;;;;;;;;;4990592;28;20038;-63
2023/07/26 07:42:33;;;;;;;9.75;4.82;;;;;;;;;;4990610;28;20160;-64
2023/07/26 07:44:58;;;;;;;9.65;4.68;;;;;;;;;;5005904;28;20042;-63
2023/07/26 07:47:24;;;;;;;9.75;5.13;;;;;;;;;;5006197;28;20041;-63
2023/07/26 07:49:49;;;;;;;10.13;5.15;;;;;;;;;;5006219;28;20441;-65
2023/07/26 07:52:14;;;;;;;9.00;5.00;;;;;;;;;;5006115;28;20411;-64
2023/07/26 07:54:39;;;;;;;9.25;5.15;;;;;;;;;;4987487;28;20121;-63
2023/07/26 07:57:05;;;;;;;8.43;5.03;;;;;;;;;;5006402;28;20054;-65
2023/07/26 07:59:30;;;;;;;7.22;4.55;;;;;;;;;;4991179;28;20385;-64
2023/07/26 08:01:55;;;;;;;9.77;4.80;;;;;;;;;;4987337;28;20100;-63
2023/07/26 08:04:21;;;;;;;10.40;4.87;;;;;;;;;;5005789;28;20277;-66
2023/07/26 08:06:46;;;;;;;9.10;4.95;;;;;;;;;;5004792;28;20129;-64
2023/07/26 08:09:11;;;;;;;8.07;4.80;;;;;;;;;;4987674;28;20107;-66
2023/07/26 08:11:36;;;;;;;8.17;4.47;;;;;;;;;;5006248;28;20658;-65
2023/07/26 08:14:03;;;;;;;9.47;4.60;;;;;;;;;;5004232;28;20438;-64
2023/07/26 08:16:28;;;;;;;7.95;4.47;;;;;;;;;;4994603;28;20290;-63
2023/07/26 08:18:53;;;;;;;9.10;4.60;;;;;;;;;;5005290;28;20052;-65
2023/07/26 08:21:18;;;;;;;7.23;4.37;;;;;;;;;;5005429;28;20125;-64
2023/07/26 08:23:44;;;;;;;8.37;4.60;;;;;;;;;;5002475;28;20132;-64
2023/07/26 08:26:09;;;;;;;7.53;4.80;;;;;;;;;;5002937;28;20069;-64
2023/07/26 08:28:34;;;;;;;9.93;4.55;;;;;;;;;;4993225;28;20308;-63
2023/07/26 08:30:59;;;;;;;8.13;4.47;;;;;;;;;;4993399;28;20038;-63
2023/07/26 08:33:25;;;;;;;8.27;4.25;;;;;;;;;;4993083;28;20041;-63
2023/07/26 08:35:50;;;;;;;8.50;4.50;;;;;;;;;;4995816;28;20045;-65
2023/07/26 08:38:15;;;;;;;9.27;4.90;;;;;;;;;;4999539;28;20038;-64
2023/07/26 08:40:45;;;;;;;8.93;4.28;;;;;;;;;;4997379;28;20038;-64
2023/07/26 08:43:10;;;;;;;8.30;4.63;;;;;;;;;;4997964;28;20125;-65
2023/07/26 08:45:35;;;;;;;6.95;4.22;;;;;;;;;;4981839;28;20370;-64
2023/07/26 08:48:01;;;;;;;8.97;4.63;;;;;;;;;;4982674;28;20049;-64
2023/07/26 08:50:26;;;;;;;8.07;4.18;;;;;;;;;;4999261;28;20303;-65
2023/07/26 08:52:51;;;;;;;8.67;4.57;;;;;;;;;;4981588;28;20907;-64
2023/07/26 08:55:16;;;;;;;6.65;4.20;;;;;;;;;;4998934;28;20463;-64
2023/07/26 08:57:42;;;;;;;9.00;4.60;;;;;;;;;;4996495;28;20056;-64
2023/07/26 09:00:07;;;;;;;7.50;3.80;;;;;;;;;;4997740;28;20388;-64
2023/07/26 09:02:33;;;;;;;7.20;4.20;;;;;;;;;;4998249;28;20046;-64
2023/07/26 09:04:58;;;;;;;9.23;3.92;;;;;;;;;;4981596;28;20187;-64
2023/07/26 09:07:23;;;;;;;6.73;4.27;;;;;;;;;;4998344;28;20120;-65
2023/07/26 09:09:48;;;;;;;7.73;4.17;;;;;;;;;;4997915;28;20128;-65
2023/07/26 09:12:24;;;;;;;6.40;3.90;;;;;;;;;;4996278;28;20149;-63
2023/07/26 09:14:52;;;;;;;7.43;3.95;;;;;;;;;;4998752;28;20304;-64
2023/07/26 09:17:17;;;;;;;8.18;3.80;;;;;;;;;;4998721;28;20124;-65
2023/07/26 09:19:42;;;;;;;7.37;3.77;;;;;;;;;;5002003;28;20125;-63
2023/07/26 09:22:07;;;;;;;7.13;3.60;;;;;;;;;;4999705;28;20065;-65
2023/07/26 09:24:34;;;;;;;6.18;3.88;;;;;;;;;;4998563;28;20076;-63
2023/07/26 09:27:06;;;;;;;8.77;4.32;;;;;;;;;;4997830;28;20062;-63
2023/07/26 09:29:32;;;;;;;6.82;3.83;;;;;;;;;;4997686;28;20040;-64
2023/07/26 09:31:57;;;;;;;5.80;3.45;;;;;;;;;;4980990;28;20137;-64
2023/07/26 09:34:22;;;;;;;7.22;3.80;;;;;;;;;;4981492;28;20069;-64
2023/07/26 09:36:48;;;;;;;7.60;3.80;;;;;;;;;;4997230;28;20073;-64
2023/07/26 09:39:14;;;;;;;6.55;4.10;;;;;;;;;;4997174;28;20042;-64
2023/07/26 09:41:40;;;;;;;7.50;3.90;;;;;;;;;;5002424;28;20062;-65
2023/07/26 09:44:08;;;;;;;6.53;3.65;;;;;;;;;;4980860;28;20037;-64
2023/07/26 09:46:49;;;;;;;8.27;3.90;;;;;;;;;;4999187;28;20084;-66
2023/07/26 09:49:15;;;;;;;7.55;3.75;;;;;;;;;;4997825;28;20083;-65
2023/07/26 09:51:40;;;;;;;6.57;3.90;;;;;;;;;;4997187;28;20066;-65
2023/07/26 09:54:05;;;;;;;7.40;3.67;;;;;;;;;;4997539;28;20050;-63
2023/07/26 09:56:31;;;;;;;6.20;3.80;;;;;;;;;;4996800;28;20049;-62
2023/07/26 09:58:56;;;;;;;6.28;3.60;;;;;;;;;;4996616;28;20844;-62
2023/07/26 10:01:22;;;;;;;6.50;3.50;;;;;;;;;;4974446;28;20038;-63
2023/07/26 10:03:49;;;;;;;6.72;3.58;;;;;;;;;;4980378;28;20049;-64
2023/07/26 10:06:14;;;;;;;7.78;3.97;;;;;;;;;;4980490;28;20037;-65
2023/07/26 10:08:41;;;;;;;7.90;3.47;;;;;;;;;;4996926;28;20438;-64
2023/07/26 10:11:06;;;;;;;6.93;3.85;;;;;;;;;;4997370;28;20443;-65
2023/07/26 10:13:32;;;;;;;6.50;3.60;;;;;;;;;;4978289;28;20037;-63
2023/07/26 10:15:57;;;;;;;6.05;3.67;;;;;;;;;;4978605;28;20208;-64
2023/07/26 10:18:22;;;;;;;6.27;3.40;;;;;;;;;;4996821;28;20518;-64
2023/07/26 10:20:48;;;;;;;7.93;3.33;;;;;;;;;;4997041;28;20288;-64
2023/07/26 10:23:13;;;;;;;7.57;3.70;;;;;;;;;;4997708;28;20148;-66
2023/07/26 10:25:39;;;;;;;6.63;3.70;;;;;;;;;;4994605;28;20415;-65
2023/07/26 10:28:04;;;;;;;5.65;3.40;;;;;;;;;;4981007;28;20299;-64
2023/07/26 10:30:29;;;;;;;6.37;3.30;;;;;;;;;;4996151;28;20046;-63
2023/07/26 10:32:55;;;;;;;5.20;3.20;;;;;;;;;;4997696;28;20037;-63
2023/07/26 10:35:32;;;;;;;6.63;3.50;;;;;;;;;;4994911;28;20069;-64
2023/07/26 10:37:58;;;;;;;5.93;3.70;;;;;;;;;;4996537;28;20073;-63
2023/07/26 10:40:31;;;;;;;7.07;3.55;;;;;;;;;;4997674;28;20459;-63
2023/07/26 10:42:56;;;;;;;8.77;3.47;;;;;;;;;;4994929;28;20048;-63
2023/07/26 10:45:41;;;;;;;6.35;3.10;;;;;;;;;;4977938;28;20025;-63
2023/07/26 10:48:11;;;;;;;5.78;3.60;;;;;;;;;;4981033;28;20042;-64
2023/07/26 10:50:36;;;;;;;5.55;3.35;;;;;;;;;;5005309;28;20034;-63
2023/07/26 10:53:21;;;;;;;6.27;3.27;;;;;;;;;;5006207;28;20124;-64
2023/07/26 10:55:48;;;;;;;4.90;2.80;;;;;;;;;;5000141;28;20720;-64
2023/07/26 10:58:13;;;;;;;6.65;3.42;;;;;;;;;;4983724;28;20044;-63
2023/07/26 11:00:38;;;;;;;5.40;3.17;;;;;;;;;;5000188;28;20035;-63
2023/07/26 11:03:04;;;;;;;5.03;3.27;;;;;;;;;;5001189;28;20309;-65
2023/07/26 11:05:29;;;;;;;5.15;3.05;;;;;;;;;;5001973;28;20030;-64
2023/07/26 11:07:59;;;;;;;6.25;3.10;;;;;;;;;;4987155;28;20457;-64
2023/07/26 11:10:31;;;;;;;5.20;3.22;;;;;;;;;;5002292;28;20136;-64
2023/07/26 11:13:06;;;;;;;6.43;3.42;;;;;;;;;;5002134;28;20514;-64
2023/07/26 11:15:32;;;;;;;4.85;2.90;;;;;;;;;;5001124;28;20034;-63
2023/07/26 11:17:57;;;;;;;6.95;3.47;;;;;;;;;;5002606;28;20056;-62
2023/07/26 11:20:22;;;;;;;6.57;3.23;;;;;;;;;;5001291;28;20099;-63
2023/07/26 11:22:47;;;;;;;5.78;3.25;;;;;;;;;;4987214;28;20328;-63
2023/07/26 11:25:13;;;;;;;6.28;3.08;;;;;;;;;;5002676;28;20517;-64
2023/07/26 11:27:38;;;;;;;5.07;2.80;;;;;;;;;;5001144;28;20046;-64
2023/07/26 11:30:03;;;;;;;5.40;3.00;;;;;;;;;;5000733;28;20030;-64
2023/07/26 11:32:28;;;;;;;6.03;3.25;;;;;;;;;;4981758;28;20030;-63
2023/07/26 11:34:54;;;;;;;5.80;2.83;;;;;;;;;;5003562;28;20033;-65
2023/07/26 11:37:20;;;;;;;6.03;3.35;;;;;;;;;;4979372;28;20312;-62
2023/07/26 11:39:45;;;;;;;4.83;2.90;;;;;;;;;;5001895;28;20494;-63
2023/07/26 11:42:14;;;;;;;5.70;2.83;;;;;;;;;;5000283;28;20053;-64
2023/07/26 11:44:40;;;;;;;6.07;3.15;;;;;;;;;;4984520;28;20065;-64
2023/07/26 11:47:05;;;;;;;5.40;2.50;;;;;;;;;;4967595;28;20104;-63
2023/07/26 11:49:32;;;;;;;5.67;3.00;;;;;;;;;;5001033;28;20099;-64
2023/07/26 11:51:57;;;;;;;5.43;3.13;;;;;;;;;;4986618;28;20288;-63
2023/07/26 11:54:23;;;;;;;4.63;2.75;;;;;;;;;;4996473;28;20482;-65
2023/07/26 11:56:48;;;;;;;5.75;2.80;;;;;;;;;;4995779;28;20465;-64
2023/07/26 11:59:14;;;;;;;4.82;2.75;;;;;;;;;;5000778;28;20560;-64
2023/07/26 12:01:39;;;;;;;5.53;3.10;;;;;;;;;;5002185;28;20086;-64
2023/07/26 12:04:17;;;;;;;4.53;2.85;;;;;;;;;;5004144;28;20388;-64
2023/07/26 12:06:44;;;;;;;5.55;2.65;;;;;;;;;;5002147;28;20083;-64
2023/07/26 12:09:12;;;;;;;6.32;2.70;;;;;;;;;;4988430;28;20108;-64
2023/07/26 12:11:38;;;;;;;6.00;2.80;;;;;;;;;;5006264;28;20050;-63
2023/07/26 12:14:03;;;;;;;4.45;2.60;;;;;;;;;;5005899;28;20085;-63
2023/07/26 12:16:28;;;;;;;4.33;2.50;;;;;;;;;;5003487;28;20421;-65
2023/07/26 12:18:56;;;;;;;5.97;2.60;;;;;;;;;;5006203;28;20526;-63
2023/07/26 12:21:27;;;;;;;5.75;3.20;;;;;;;;;;5003194;28;22113;-62
2023/07/26 12:23:52;;;;;;;4.30;2.63;;;;;;;;;;5003483;28;20038;-64
2023/07/26 12:26:21;;;;;;;5.95;2.72;;;;;;;;;;5000345;28;20107;-63
2023/07/26 12:28:47;;;;;;;5.35;2.92;;;;;;;;;;5003994;28;20679;-63
2023/07/26 12:31:29;;;;;;;5.85;3.05;;;;;;;;;;5003652;28;20029;-65
2023/07/26 12:33:57;;;;;;;6.28;3.00;;;;;;;;;;5004908;28;20033;-64
2023/07/26 12:36:23;;;;;;;4.93;2.70;;;;;;;;;;4984439;28;20439;-62
2023/07/26 12:38:49;;;;;;;4.80;2.42;;;;;;;;;;5004992;28;20022;-64
2023/07/26 12:41:14;;;;;;;5.23;2.83;;;;;;;;;;4981311;28;20018;-64
2023/07/26 12:43:39;;;;;;;4.78;2.80;;;;;;;;;;4983361;28;20080;-63
2023/07/26 12:46:05;;;;;;;4.15;2.58;;;;;;;;;;4977272;28;20026;-65
2023/07/26 12:48:30;;;;;;;4.33;2.60;;;;;;;;;;5000901;28;20516;-65
2023/07/26 12:50:55;;;;;;;4.75;2.75;;;;;;;;;;4998614;28;20300;-65
2023/07/26 12:53:21;;;;;;;4.72;2.63;;;;;;;;;;4993368;28;20053;-63
2023/07/26 12:55:46;;;;;;;4.95;2.58;;;;;;;;;;5001554;28;20022;-64
2023/07/26 12:58:12;;;;;;;5.67;2.73;;;;;;;;;;5006643;28;20445;-64
2023/07/26 13:00:37;;;;;;;6.80;3.00;;;;;;;;;;4983410;28;20273;-64
2023/07/26 13:03:03;;;;;;;4.43;2.80;;;;;;;;;;5000422;28;20667;-62
2023/07/26 13:05:28;;;;;;;4.30;2.40;;;;;;;;;;4999347;28;20289;-66
2023/07/26 13:07:53;;;;;;;4.07;2.90;;;;;;;;;;4982178;28;20092;-66
2023/07/26 13:10:19;;;;;;;4.60;2.90;;;;;;;;;;4978962;28;20284;-64
2023/07/26 13:12:44;;;;;;;5.70;2.70;;;;;;;;;;4999106;28;20272;-63
2023/07/26 13:15:10;;;;;;;3.75;2.30;;;;;;;;;;4999236;28;20656;-63
2023/07/26 13:17:35;;;;;;;4.13;2.53;;;;;;;;;;4979155;28;20052;-65
2023/07/26 13:20:00;;;;;;;4.53;2.37;;;;;;;;;;4988750;28;21013;-65
2023/07/26 13:22:26;;;;;;;4.90;2.92;;;;;;;;;;4996652;28;20435;-64
2023/07/26 13:24:52;;;;;;;4.65;2.42;;;;;;;;;;4998033;28;20045;-63
2023/07/26 13:27:17;;;;;;;4.88;2.55;;;;;;;;;;4982226;28;20493;-65
2023/07/26 13:29:42;;;;;;;5.47;2.80;;;;;;;;;;4997917;28;20026;-63
2023/07/26 13:32:07;;;;;;;4.83;2.30;;;;;;;;;;4997695;28;20792;-65
2023/07/26 13:34:33;;;;;;;4.13;2.50;;;;;;;;;;4996461;28;20356;-63
2023/07/26 13:36:58;;;;;;;3.25;2.08;;;;;;;;;;4997588;28;20297;-63
2023/07/26 13:39:23;;;;;;;4.20;2.50;;;;;;;;;;4996777;23;20042;-68
2023/07/26 13:41:48;;;;;;;5.07;2.50;;;;;;;;;;4998500;28;20052;-67
2023/07/26 13:44:14;;;;;;;4.68;2.60;;;;;;;;;;4999870;28;20022;-67
2023/07/26 13:46:39;;;;;;;5.65;2.65;;;;;;;;;;4965610;28;20026;-67
2023/07/26 13:49:05;;;;;;;3.65;2.33;;;;;;;;;;4999007;28;20022;-67
2023/07/26 13:51:31;;;;;;;5.43;2.50;;;;;;;;;;4999254;28;20359;-65
2023/07/26 13:53:56;;;;;;;4.43;2.10;;;;;;;;;;4998537;28;20045;-64
2023/07/26 13:56:21;;;;;;;4.13;2.53;;;;;;;;;;4999228;28;20056;-65
2023/07/26 13:58:46;;;;;;;5.07;2.80;;;;;;;;;;4998373;28;20662;-66
2023/07/26 14:01:11;;;;;;;4.37;2.50;;;;;;;;;;5000578;28;20360;-67
2023/07/26 14:03:37;;;;;;;5.50;2.20;;;;;;;;;;5004697;28;20057;-65
2023/07/26 14:06:02;;;;;;;5.73;2.40;;;;;;;;;;5007623;28;20054;-67
2023/07/26 14:08:27;;;;;;;4.70;2.50;;;;;;;;;;4986900;28;20061;-67
2023/07/26 14:10:52;;;;;;;4.65;2.45;;;;;;;;;;5004351;28;20284;-69
2023/07/26 14:13:18;;;;;;;4.80;2.33;;;;;;;;;;5004902;28;20025;-66
2023/07/26 14:15:43;;;;;;;4.87;2.43;;;;;;;;;;5004953;28;20040;-68
2023/07/26 14:18:08;;;;;;;4.77;2.37;;;;;;;;;;5005549;28;20022;-66
2023/07/26 14:20:34;;;;;;;4.05;2.50;;;;;;;;;;4987603;28;20334;-67
2023/07/26 14:22:59;;;;;;;3.63;2.35;;;;;;;;;;5006895;28;20119;-65
2023/07/26 14:25:24;;;;;;;4.43;2.50;;;;;;;;;;5007044;28;20506;-68
2023/07/26 14:27:49;;;;;;;5.47;2.30;;;;;;;;;;5006684;28;20499;-67